CYYJ/YYJ METAR and TAF weather

Enter ICAO airport designator
Station Type Date Time Source
CYYJ METAR 2022/08/16 19:00 UTC NOAA

CYYJ 161900Z 10006KT 070V140 30SM FEW250 20/12 A3008 RMK CI1 CI TR SLP187 DENSITY ALT 600FT


Station Type Date Time Source
CYYJ Decoded METAR 2022/08/16 19:00 UTC NOAA

Victoria Int. Airport, B. C., Canada (CYYJ) 48-39N 123-26W 19M
Aug 16, 2022 - 03:00 PM EDT / 2022.08.16 1900 UTC
Wind: from the E (100 degrees) at 7 MPH (6 KT) (direction variable):0
Visibility: 30 mile(s):0
Sky conditions: mostly clear
Temperature: 68 F (20 C)
Dew Point: 53 F (12 C)
Relative Humidity: 59%
Pressure (altimeter): 30.08 in. Hg (1018 hPa)
ob: CYYJ 161900Z 10006KT 070V140 30SM FEW250 20/12 A3008 RMK CI1 CI TR SLP187 DENSITY ALT 600FT
cycle: 19

Station Type Date Time Source
CYYJ TAF 2022/08/16 18:42 UTC NOAA

TAF CYYJ 161740Z 1618/1718 12005KT P6SM FEW250
BECMG 1705/1707 27006KT
BECMG 1716/1718 07007KT
RMK NXT FCST BY 170000Z

Example: see airport list